Gobblers Point, Arkansas
Current Conditions -  °F | °C
As of 12:53 PM on Thursday 18 Dec 2014 (Local Time) from KRUE Reporting Station
Overcast Overcast  
Wind Chill: 40°   Ceiling: 700
Heat Index: 40°   Visibility: 9mi
Dew Point: 36°   Wind: 0mph
Humidity: 86%   Direction: NA
Pressure: 30.19"   Gusts: NA
Location:  35.3927°N, 92.8078°W
Report Text: KRUE 181853Z AUTO 00000KT 9SM OVC007 04/02 A3019 RMK AO2 SLP222 T00440022
Loading
Personal Weather Stations






























Interactive Weather Map New forecast layout! Learn more

10-Day Weather Forecast

Advertisements
Track Severe Weather on mobile